Аэропорт: Ивано-Франковск. Ивано-Франковск

ICAO: UKLI

METAR:
2018/05/20 19:30
UKLI 201930Z 34003MPS 9999 BKN033 BKN100 13/07 Q1022 R28/290065 NOSIG
METAR:
2017/04/23 12:03
TAF 
      AMD TAF 
      AMD UKLI 231200Z 2312/2324 33005G10MPS 9999 BKN020 
      TEMPO 2312/2318 36010G15MPS 2100 -TSRA BKN011CB BKN015 TX10/2313Z TN05/2321Z